createdAt,value
2022-09-17T00:01:07.961Z,57.80
2022-09-17T00:03:35.575Z,57.80
2022-09-17T00:06:05.011Z,57.90
2022-09-17T00:08:32.277Z,58.20
2022-09-17T00:11:05.700Z,58.00
2022-09-17T00:13:32.250Z,57.80
2022-09-17T00:15:58.863Z,57.90
2022-09-17T00:18:25.620Z,58.00
2022-09-17T00:20:52.239Z,58.10
2022-09-17T00:23:19.056Z,57.90
2022-09-17T00:25:46.345Z,58.00
2022-09-17T00:28:14.148Z,58.00
2022-09-17T00:30:45.176Z,58.00
2022-09-17T00:33:13.660Z,57.70
2022-09-17T00:35:40.291Z,58.00
2022-09-17T00:38:06.987Z,57.80
2022-09-17T00:40:34.138Z,58.00
2022-09-17T00:43:01.314Z,58.00
2022-09-17T00:45:28.333Z,57.70
2022-09-17T00:48:01.368Z,58.10
2022-09-17T00:50:41.399Z,58.40
2022-09-17T00:53:14.283Z,58.10
2022-09-17T00:55:45.770Z,58.00
2022-09-17T00:58:14.994Z,58.10
2022-09-17T01:00:42.085Z,58.10
2022-09-17T01:03:08.975Z,58.00
2022-09-17T01:06:09.204Z,57.60
2022-09-17T01:09:12.154Z,58.10
2022-09-17T01:12:00.114Z,57.60
2022-09-17T01:14:40.034Z,57.90
2022-09-17T01:17:42.036Z,57.90
2022-09-17T01:20:42.111Z,57.60
2022-09-17T01:23:39.521Z,57.80
2022-09-17T01:26:27.834Z,58.00
2022-09-17T01:29:21.362Z,58.00
2022-09-17T01:31:58.733Z,57.20
2022-09-17T01:34:58.785Z,57.90
2022-09-17T01:37:37.191Z,57.70
2022-09-17T01:40:09.468Z,57.70
2022-09-17T01:42:51.568Z,57.90
2022-09-17T01:45:43.484Z,57.80
2022-09-17T01:48:12.671Z,57.80
2022-09-17T01:51:03.640Z,57.40
2022-09-17T01:53:57.852Z,57.80
2022-09-17T01:56:29.269Z,57.10
2022-09-17T01:59:07.528Z,57.50
2022-09-17T02:01:36.723Z,57.60
2022-09-17T02:04:14.833Z,57.40
2022-09-17T02:06:46.019Z,57.50
2022-09-17T02:09:21.280Z,57.20
2022-09-17T02:11:55.450Z,57.40
2022-09-17T02:14:30.352Z,57.20
2022-09-17T02:17:06.810Z,57.10
2022-09-17T02:19:38.429Z,57.30
2022-09-17T02:22:20.748Z,57.20
2022-09-17T02:24:53.188Z,57.20
2022-09-17T02:27:34.753Z,57.20
2022-09-17T02:30:01.344Z,57.30
2022-09-17T02:32:28.407Z,57.00
2022-09-17T02:34:55.044Z,57.00
2022-09-17T02:37:21.662Z,57.20
2022-09-17T02:39:48.420Z,57.40
2022-09-17T02:42:58.089Z,57.40
2022-09-17T02:45:24.628Z,57.10
2022-09-17T02:48:03.176Z,57.00
2022-09-17T02:50:50.159Z,57.40
2022-09-17T02:53:28.720Z,57.70
2022-09-17T02:56:25.977Z,57.40
2022-09-17T02:59:11.685Z,56.90
2022-09-17T03:02:08.976Z,57.20
2022-09-17T03:04:38.088Z,57.10
2022-09-17T03:07:08.976Z,57.30
2022-09-17T03:09:36.102Z,57.20
2022-09-17T03:12:03.633Z,57.20
2022-09-17T03:14:30.227Z,57.40
2022-09-17T03:16:57.422Z,57.30
2022-09-17T03:19:24.039Z,57.40
2022-09-17T03:21:50.589Z,57.20
2022-09-17T03:24:19.533Z,57.70
2022-09-17T03:26:47.440Z,57.50
2022-09-17T03:29:14.032Z,57.50
2022-09-17T03:31:40.956Z,57.30
2022-09-17T03:34:10.812Z,57.50
2022-09-17T03:36:37.438Z,57.30
2022-09-17T03:39:04.799Z,57.40
2022-09-17T03:41:31.452Z,57.40
2022-09-17T03:43:58.137Z,57.40
2022-09-17T03:46:24.776Z,57.40
2022-09-17T03:48:51.356Z,57.40
2022-09-17T03:51:18.035Z,57.30
2022-09-17T03:53:44.669Z,57.20
2022-09-17T03:56:11.243Z,57.20
2022-09-17T03:58:38.780Z,57.20
2022-09-17T04:01:05.808Z,57.20
2022-09-17T04:03:32.619Z,57.40
2022-09-17T04:05:59.639Z,57.30
2022-09-17T04:08:26.209Z,57.30
2022-09-17T04:10:52.954Z,57.30
2022-09-17T04:13:20.232Z,57.40
2022-09-17T04:15:47.064Z,57.30
2022-09-17T04:18:14.000Z,57.40
2022-09-17T04:20:40.613Z,57.30
2022-09-17T04:23:10.052Z,57.40
2022-09-17T04:25:36.627Z,57.40
2022-09-17T04:28:03.217Z,57.30
2022-09-17T04:30:29.981Z,57.20
2022-09-17T04:32:56.551Z,57.30
2022-09-17T04:35:23.145Z,57.30
2022-09-17T04:37:54.486Z,57.30
2022-09-17T04:40:21.829Z,57.60
2022-09-17T04:42:48.966Z,57.30
2022-09-17T04:45:15.606Z,57.40
2022-09-17T04:47:42.176Z,57.40
2022-09-17T04:50:09.064Z,57.40
2022-09-17T04:52:35.621Z,57.40
2022-09-17T04:55:02.225Z,57.30
2022-09-17T04:57:28.892Z,57.30
2022-09-17T04:59:55.477Z,57.20
2022-09-17T05:02:22.205Z,57.00
2022-09-17T05:04:50.618Z,57.10
2022-09-17T05:07:17.290Z,57.10
2022-09-17T05:09:43.876Z,57.20
2022-09-17T05:12:10.444Z,57.30
2022-09-17T05:14:37.179Z,57.60
2022-09-17T05:17:03.775Z,57.70
2022-09-17T05:19:30.882Z,57.80
2022-09-17T05:21:58.058Z,57.60
2022-09-17T05:24:24.678Z,57.70
2022-09-17T05:26:51.307Z,57.70
2022-09-17T05:29:17.882Z,57.90
2022-09-17T05:31:44.607Z,57.70
2022-09-17T05:34:11.552Z,57.60
2022-09-17T05:36:38.143Z,57.50
2022-09-17T05:39:04.907Z,57.50
2022-09-17T05:41:31.497Z,57.40
2022-09-17T05:43:58.057Z,57.50
2022-09-17T05:46:24.672Z,57.40
2022-09-17T05:48:51.276Z,57.50
2022-09-17T05:51:18.795Z,57.60
2022-09-17T05:53:45.360Z,57.50
2022-09-17T05:56:12.536Z,57.40
2022-09-17T05:58:39.117Z,57.50
2022-09-17T06:01:06.190Z,57.50
2022-09-17T06:03:32.999Z,57.40
2022-09-17T06:06:00.415Z,57.30
2022-09-17T06:08:28.816Z,57.50
2022-09-17T06:10:58.939Z,57.60
2022-09-17T06:13:28.249Z,57.80
2022-09-17T06:15:54.924Z,57.90
2022-09-17T06:18:21.748Z,58.00
2022-09-17T06:20:59.906Z,58.00
2022-09-17T06:23:27.730Z,57.80
2022-09-17T06:25:58.982Z,57.80
2022-09-17T06:28:27.343Z,57.80
2022-09-17T06:30:55.884Z,57.50
2022-09-17T06:33:23.733Z,57.70
2022-09-17T06:35:57.499Z,57.90
2022-09-17T06:38:24.076Z,58.50
2022-09-17T06:40:52.184Z,58.10
2022-09-17T06:43:19.404Z,57.90
2022-09-17T06:45:55.537Z,57.80
2022-09-17T06:48:23.405Z,57.90
2022-09-17T06:50:51.399Z,57.80
2022-09-17T06:53:19.887Z,58.00
2022-09-17T06:55:46.436Z,58.10
2022-09-17T06:58:13.024Z,58.00
2022-09-17T07:00:40.181Z,57.90
2022-09-17T07:03:06.844Z,58.20
2022-09-17T07:05:33.422Z,58.20
2022-09-17T07:08:05.185Z,58.40
2022-09-17T07:10:32.216Z,58.60
2022-09-17T07:12:59.336Z,58.30
2022-09-17T07:15:26.028Z,58.20
2022-09-17T07:17:53.969Z,58.10
2022-09-17T07:20:20.557Z,58.00
2022-09-17T07:22:56.300Z,58.10
2022-09-17T07:25:23.268Z,58.30
2022-09-17T07:27:50.376Z,58.00
2022-09-17T07:30:17.106Z,58.10
2022-09-17T07:32:43.749Z,57.90
2022-09-17T07:35:10.541Z,58.20
2022-09-17T07:37:37.114Z,58.20
2022-09-17T07:40:06.912Z,58.40
2022-09-17T07:42:34.008Z,58.50
2022-09-17T07:45:02.155Z,58.70
2022-09-17T07:47:29.046Z,58.20
2022-09-17T07:49:55.607Z,58.40
2022-09-17T07:52:22.500Z,58.60
2022-09-17T07:54:49.095Z,58.50
2022-09-17T07:57:15.799Z,58.40
2022-09-17T07:59:42.362Z,58.20
2022-09-17T08:02:14.095Z,58.10
2022-09-17T08:04:43.790Z,58.60
2022-09-17T08:07:13.636Z,58.20
2022-09-17T08:09:40.197Z,58.10
2022-09-17T08:12:07.425Z,58.20
2022-09-17T08:14:34.183Z,57.90
2022-09-17T08:17:00.808Z,57.50
2022-09-17T08:19:29.696Z,57.70
2022-09-17T08:21:56.739Z,57.60
2022-09-17T08:24:23.481Z,58.00
2022-09-17T08:26:50.103Z,58.10
2022-09-17T08:29:16.701Z,58.10
2022-09-17T08:31:43.337Z,57.90
2022-09-17T08:34:10.139Z,57.90
2022-09-17T08:36:37.247Z,58.00
2022-09-17T08:39:04.080Z,58.30
2022-09-17T08:41:51.742Z,58.30
2022-09-17T08:44:42.581Z,58.90
2022-09-17T08:47:33.640Z,58.20
2022-09-17T08:50:04.214Z,58.40
2022-09-17T08:53:09.299Z,58.60
2022-09-17T08:55:51.436Z,58.80
2022-09-17T08:58:29.750Z,58.40
2022-09-17T09:01:20.922Z,58.50
2022-09-17T09:04:32.764Z,58.50
2022-09-17T09:07:20.409Z,58.80
2022-09-17T09:09:54.393Z,58.90
2022-09-17T09:12:26.631Z,59.10
2022-09-17T09:15:08.181Z,58.90
2022-09-17T09:17:43.787Z,58.80
2022-09-17T09:20:29.992Z,58.70
2022-09-17T09:22:59.875Z,58.60
2022-09-17T09:25:33.540Z,58.60
2022-09-17T09:28:04.219Z,58.50
2022-09-17T09:30:59.773Z,58.10
2022-09-17T09:33:31.080Z,57.80
2022-09-17T09:35:59.142Z,57.40
2022-09-17T09:38:37.007Z,58.20
2022-09-17T09:41:11.550Z,58.40
2022-09-17T09:44:04.992Z,58.10
2022-09-17T09:47:02.435Z,57.90
2022-09-17T09:49:53.739Z,57.80
2022-09-17T09:52:53.539Z,57.50
2022-09-17T09:55:29.884Z,57.60
2022-09-17T09:58:05.569Z,57.50
2022-09-17T10:00:44.883Z,57.50
2022-09-17T10:03:20.919Z,57.20
2022-09-17T10:05:55.590Z,57.50
2022-09-17T10:08:22.203Z,57.30
2022-09-17T10:11:21.147Z,56.90
2022-09-17T10:13:48.049Z,56.90
2022-09-17T10:16:24.789Z,56.60
2022-09-17T10:19:13.628Z,56.40
2022-09-17T10:21:42.476Z,56.50
2022-09-17T10:24:28.244Z,56.20
2022-09-17T10:27:22.527Z,55.90
2022-09-17T10:29:53.000Z,55.90
2022-09-17T10:32:21.936Z,56.00
2022-09-17T10:35:04.186Z,55.70
2022-09-17T10:37:49.127Z,55.70
2022-09-17T10:40:18.960Z,55.90
2022-09-17T10:42:50.881Z,55.60
2022-09-17T10:45:26.112Z,55.40
2022-09-17T10:47:54.061Z,55.40
2022-09-17T10:50:26.692Z,55.30
2022-09-17T10:52:56.611Z,55.00
2022-09-17T10:55:37.276Z,54.40
2022-09-17T10:58:09.925Z,54.20
2022-09-17T11:00:55.334Z,54.30
2022-09-17T11:03:28.412Z,54.30
2022-09-17T11:06:20.726Z,53.80
2022-09-17T11:09:11.437Z,53.60
2022-09-17T11:12:12.333Z,53.50
2022-09-17T11:14:50.991Z,53.20
2022-09-17T11:17:50.178Z,53.00
2022-09-17T11:20:44.755Z,52.90
2022-09-17T11:23:47.057Z,53.10
2022-09-17T11:26:39.235Z,52.90
2022-09-17T11:29:39.172Z,52.80
2022-09-17T11:32:11.224Z,53.30
2022-09-17T11:34:58.480Z,53.60
2022-09-17T11:37:55.515Z,53.60
2022-09-17T11:40:36.619Z,53.20
2022-09-17T11:43:14.400Z,53.00
2022-09-17T11:46:00.431Z,53.50
2022-09-17T11:48:42.331Z,53.60
2022-09-17T11:51:20.336Z,53.50
2022-09-17T11:53:56.648Z,53.00
2022-09-17T11:56:33.620Z,53.30
2022-09-17T11:59:20.228Z,53.70
2022-09-17T12:01:59.932Z,53.40
2022-09-17T12:04:49.847Z,53.00
2022-09-17T12:07:29.880Z,53.10
2022-09-17T12:10:03.372Z,52.90
2022-09-17T12:12:48.867Z,52.50
2022-09-17T12:15:24.507Z,52.30
2022-09-17T12:18:32.748Z,52.30
2022-09-17T12:21:01.937Z,51.70
2022-09-17T12:23:35.965Z,51.70
2022-09-17T12:26:25.756Z,52.50
2022-09-17T12:29:05.654Z,52.90
2022-09-17T12:31:51.178Z,52.60
2022-09-17T12:34:53.420Z,52.20
2022-09-17T12:37:32.175Z,52.20
2022-09-17T12:40:30.759Z,52.20
2022-09-17T12:43:23.615Z,52.00
2022-09-17T12:46:03.663Z,52.10
2022-09-17T12:48:51.784Z,52.20
2022-09-17T12:51:44.985Z,52.00
2022-09-17T12:54:45.297Z,52.20
2022-09-17T12:57:36.363Z,51.60
2022-09-17T13:00:10.866Z,51.70
2022-09-17T13:02:43.720Z,51.00
2022-09-17T13:05:39.183Z,51.00
2022-09-17T13:08:12.091Z,50.10
2022-09-17T13:10:47.402Z,52.60
2022-09-17T13:13:47.640Z,50.60
2022-09-17T13:16:54.722Z,50.40
2022-09-17T13:19:33.998Z,50.70
2022-09-17T13:22:07.134Z,49.70
2022-09-17T13:24:34.665Z,49.80
2022-09-17T13:27:05.706Z,50.30
2022-09-17T13:29:47.172Z,49.50
2022-09-17T13:32:35.406Z,50.00
2022-09-17T13:35:24.954Z,50.30
2022-09-17T13:38:01.606Z,50.70
2022-09-17T13:40:34.190Z,49.40
2022-09-17T13:43:03.632Z,49.40
2022-09-17T13:45:32.013Z,49.80
2022-09-17T13:48:05.766Z,50.00
2022-09-17T13:50:37.511Z,49.20
2022-09-17T13:53:16.903Z,49.60
2022-09-17T13:55:49.212Z,49.10
2022-09-17T13:58:21.433Z,49.20
2022-09-17T14:01:05.455Z,49.10
2022-09-17T14:03:35.084Z,48.60
2022-09-17T14:06:04.804Z,48.90
2022-09-17T14:08:54.445Z,49.00
2022-09-17T14:11:24.261Z,49.30
2022-09-17T14:14:10.433Z,48.50
2022-09-17T14:16:42.489Z,48.40
2022-09-17T14:19:33.487Z,48.30
2022-09-17T14:22:02.860Z,49.40
2022-09-17T14:24:37.173Z,49.10
2022-09-17T14:27:51.272Z,49.40
2022-09-17T14:30:30.448Z,50.70
2022-09-17T14:33:18.552Z,50.00
2022-09-17T14:35:47.810Z,50.70
2022-09-17T14:38:44.733Z,50.50
2022-09-17T14:41:11.361Z,50.00
2022-09-17T14:43:54.682Z,49.70
2022-09-17T14:46:29.275Z,49.80
2022-09-17T14:49:13.076Z,49.40
2022-09-17T14:51:40.402Z,50.70
2022-09-17T14:54:21.511Z,49.50
2022-09-17T14:56:58.989Z,49.80
2022-09-17T14:59:53.324Z,49.90
2022-09-17T15:02:29.340Z,49.90
2022-09-17T15:04:56.956Z,48.60
2022-09-17T15:07:25.185Z,47.80
2022-09-17T15:09:55.133Z,48.00
2022-09-17T15:12:29.617Z,47.90
2022-09-17T15:14:58.019Z,47.70
2022-09-17T15:17:24.764Z,47.40
2022-09-17T15:19:58.260Z,47.90
2022-09-17T15:22:38.392Z,47.60
2022-09-17T15:25:14.141Z,47.00
2022-09-17T15:27:44.139Z,47.40
2022-09-17T15:30:22.580Z,48.00
2022-09-17T15:32:59.890Z,48.00
2022-09-17T15:35:30.353Z,48.40
2022-09-17T15:38:22.182Z,48.20
2022-09-17T15:40:49.874Z,48.70
2022-09-17T15:43:29.576Z,48.90
2022-09-17T15:45:58.143Z,48.90
2022-09-17T15:48:27.793Z,49.00
2022-09-17T15:50:59.480Z,49.40
2022-09-17T15:53:28.648Z,49.50
2022-09-17T15:56:17.425Z,50.10
2022-09-17T15:58:46.960Z,50.50
2022-09-17T16:01:22.103Z,50.10
2022-09-17T16:04:13.908Z,50.50
2022-09-17T16:06:49.718Z,51.00
2022-09-17T16:09:39.252Z,51.10
2022-09-17T16:12:06.210Z,51.50
2022-09-17T16:14:32.824Z,51.20
2022-09-17T16:16:59.658Z,51.40
2022-09-17T16:19:26.580Z,51.60
2022-09-17T16:21:53.184Z,51.80
2022-09-17T16:24:19.942Z,52.20
2022-09-17T16:26:46.495Z,52.40
2022-09-17T16:29:15.979Z,52.60
2022-09-17T16:31:42.734Z,52.80
2022-09-17T16:34:09.334Z,53.00
2022-09-17T16:36:36.190Z,53.10
2022-09-17T16:39:02.942Z,53.40
2022-09-17T16:41:29.540Z,53.40
2022-09-17T16:43:57.257Z,53.50
2022-09-17T16:46:26.999Z,53.70
2022-09-17T16:48:53.755Z,53.70
2022-09-17T16:51:20.387Z,53.90
2022-09-17T16:53:47.075Z,54.00
2022-09-17T16:56:15.425Z,54.10
2022-09-17T16:58:42.164Z,54.20
2022-09-17T17:01:09.865Z,54.20
2022-09-17T17:03:36.792Z,54.30
2022-09-17T17:06:03.836Z,54.40
2022-09-17T17:08:33.992Z,54.40
2022-09-17T17:11:00.919Z,54.70
2022-09-17T17:13:27.836Z,54.80
2022-09-17T17:15:55.042Z,55.00
2022-09-17T17:18:22.181Z,55.00
2022-09-17T17:20:48.958Z,55.20
2022-09-17T17:23:16.663Z,55.10
2022-09-17T17:25:43.279Z,55.30
2022-09-17T17:28:10.038Z,55.40
2022-09-17T17:30:37.765Z,55.30
2022-09-17T17:33:04.410Z,55.40
2022-09-17T17:35:31.459Z,55.50
2022-09-17T17:37:58.025Z,55.60
2022-09-17T17:40:24.657Z,55.60
2022-09-17T17:42:54.685Z,55.70
2022-09-17T17:45:21.513Z,55.80
2022-09-17T17:47:48.584Z,55.80
2022-09-17T17:50:15.811Z,55.80
2022-09-17T17:52:47.676Z,55.90
2022-09-17T17:55:15.629Z,56.00
2022-09-17T17:57:42.360Z,55.90
2022-09-17T18:00:12.393Z,55.80
2022-09-17T18:02:46.634Z,56.00
2022-09-17T18:05:13.285Z,55.90
2022-09-17T18:07:40.059Z,55.80
2022-09-17T18:10:07.223Z,55.90
2022-09-17T18:12:33.853Z,56.00
2022-09-17T18:15:00.440Z,56.00
2022-09-17T18:17:28.948Z,56.10
2022-09-17T18:19:56.329Z,56.10
2022-09-17T18:22:23.101Z,55.90
2022-09-17T18:24:49.726Z,56.00
2022-09-17T18:27:16.360Z,56.10
2022-09-17T18:29:42.952Z,56.30
2022-09-17T18:32:09.683Z,56.60
2022-09-17T18:34:36.477Z,56.50
2022-09-17T18:37:03.761Z,56.30
2022-09-17T18:39:57.462Z,56.50
2022-09-17T18:42:16.896Z,56.60
2022-09-17T18:44:43.441Z,56.50
2022-09-17T18:47:09.995Z,56.60
2022-09-17T18:49:36.560Z,56.50
2022-09-17T18:52:05.399Z,56.70
2022-09-17T18:54:31.935Z,56.60
2022-09-17T18:56:58.492Z,56.70
2022-09-17T18:59:25.130Z,56.80
2022-09-17T19:01:51.849Z,56.80
2022-09-17T19:04:18.512Z,56.70
2022-09-17T19:06:45.219Z,56.90
2022-09-17T19:09:11.895Z,57.00
2022-09-17T19:11:38.474Z,56.60
2022-09-17T19:14:05.206Z,56.60
2022-09-17T19:16:31.973Z,56.80
2022-09-17T19:18:58.585Z,56.70
2022-09-17T19:21:25.384Z,56.70
2022-09-17T19:23:52.592Z,56.80
2022-09-17T19:26:25.256Z,56.90
2022-09-17T19:28:53.601Z,57.10
2022-09-17T19:31:21.031Z,57.00
2022-09-17T19:33:48.012Z,56.90
2022-09-17T19:36:16.715Z,56.80
2022-09-17T19:38:44.112Z,56.90
2022-09-17T19:41:13.699Z,56.80
2022-09-17T19:43:40.751Z,57.00
2022-09-17T19:46:11.267Z,56.90
2022-09-17T19:48:49.981Z,57.10
2022-09-17T19:51:17.683Z,57.20
2022-09-17T19:53:45.481Z,57.10
2022-09-17T19:56:14.007Z,57.10
2022-09-17T19:58:41.451Z,57.40
2022-09-17T20:01:08.119Z,57.40
2022-09-17T20:03:34.701Z,57.10
2022-09-17T20:06:07.075Z,57.20
2022-09-17T20:08:39.282Z,57.70
2022-09-17T20:11:10.070Z,57.60
2022-09-17T20:13:37.840Z,57.50
2022-09-17T20:16:14.093Z,57.60
2022-09-17T20:18:40.823Z,57.70
2022-09-17T20:21:18.947Z,57.30
2022-09-17T20:23:45.970Z,57.50
2022-09-17T20:26:13.226Z,57.50
2022-09-17T20:28:40.207Z,57.40
2022-09-17T20:31:21.316Z,57.60
2022-09-17T20:33:50.727Z,57.70
2022-09-17T20:36:18.928Z,57.70
2022-09-17T20:41:34.187Z,57.40
2022-09-17T20:44:00.793Z,57.30
2022-09-17T20:46:29.614Z,57.70
2022-09-17T20:48:58.199Z,57.70
2022-09-17T20:51:27.771Z,57.70
2022-09-17T20:53:54.848Z,57.60
2022-09-17T20:56:26.184Z,57.50
2022-09-17T20:58:58.883Z,57.70
2022-09-17T21:01:35.600Z,57.70
2022-09-17T21:04:04.335Z,57.30
2022-09-17T21:06:33.576Z,57.20
2022-09-17T21:09:00.434Z,57.50
2022-09-17T21:11:27.972Z,57.80
2022-09-17T21:13:54.611Z,58.10
2022-09-17T21:16:21.343Z,58.10
2022-09-17T21:18:48.020Z,57.70
2022-09-17T21:21:17.403Z,57.90
2022-09-17T21:23:44.906Z,57.80
2022-09-17T21:26:14.623Z,57.80
2022-09-17T21:28:43.071Z,57.90
2022-09-17T21:31:17.487Z,57.90
2022-09-17T21:33:45.608Z,58.00
2022-09-17T21:36:15.362Z,57.60
2022-09-17T21:38:42.791Z,57.90
2022-09-17T21:41:12.438Z,57.70
2022-09-17T21:43:40.153Z,57.70
2022-09-17T21:46:14.342Z,57.60
2022-09-17T21:48:47.052Z,57.90
2022-09-17T21:51:16.491Z,57.70
2022-09-17T21:53:43.711Z,57.60
2022-09-17T21:56:17.698Z,57.50
2022-09-17T21:58:45.699Z,57.70
2022-09-17T22:01:17.584Z,57.30
2022-09-17T22:03:45.094Z,57.40
2022-09-17T22:06:21.245Z,57.20
2022-09-17T22:08:48.962Z,57.40
2022-09-17T22:11:23.904Z,57.30
2022-09-17T22:13:54.765Z,57.70
2022-09-17T22:16:23.531Z,57.80
2022-09-17T22:18:51.372Z,57.80
2022-09-17T22:21:27.367Z,57.80
2022-09-17T22:23:56.150Z,57.90
2022-09-17T22:26:24.753Z,58.00
2022-09-17T22:28:51.888Z,58.00
2022-09-17T22:31:19.295Z,58.10
2022-09-17T22:33:48.070Z,57.90
2022-09-17T22:36:20.664Z,57.90
2022-09-17T22:38:49.584Z,58.10
2022-09-17T22:41:22.152Z,57.80
2022-09-17T22:43:52.702Z,58.20
2022-09-17T22:46:22.598Z,58.10
2022-09-17T22:48:49.416Z,57.80
2022-09-17T22:51:16.662Z,57.80
2022-09-17T22:53:43.568Z,57.80
2022-09-17T22:56:13.308Z,57.90
2022-09-17T22:58:40.573Z,58.00
2022-09-17T23:01:11.473Z,57.80
2022-09-17T23:03:39.483Z,57.80
2022-09-17T23:06:09.454Z,57.60
2022-09-17T23:08:37.289Z,57.60
2022-09-17T23:11:06.088Z,57.50
2022-09-17T23:13:33.337Z,57.60
2022-09-17T23:16:04.791Z,57.60
2022-09-17T23:18:31.777Z,57.80
2022-09-17T23:21:00.251Z,57.90
2022-09-17T23:23:28.169Z,58.00
2022-09-17T23:25:55.707Z,58.20
2022-09-17T23:28:22.605Z,58.20
2022-09-17T23:30:49.246Z,58.20
2022-09-17T23:33:15.998Z,57.90
2022-09-17T23:35:42.561Z,57.70
2022-09-17T23:38:09.156Z,57.80
2022-09-17T23:40:35.817Z,57.80
2022-09-17T23:43:02.420Z,58.00
2022-09-17T23:45:29.032Z,58.00
2022-09-17T23:47:55.592Z,57.70
2022-09-17T23:50:22.493Z,57.60
2022-09-17T23:52:49.079Z,57.70
2022-09-17T23:55:15.647Z,57.50
2022-09-17T23:57:42.265Z,57.60
